Rolling Meadows, Illinois
Current Conditions -  °F | °C
As of 7:40 AM on Friday 31 Oct 2014 (Local Time) from KPWK Reporting Station
Overcast Overcast  
Wind Chill: 26°   Ceiling: 1600
Heat Index: 35°   Visibility: 9mi
Dew Point: 31°   Wind: 14mph
Humidity: 85%   Direction: 330°NNW
Pressure: 30.12"   Gusts: 22mph
Location:  42.08°N, 88.03°W
Report Text: KPWK 311240Z 33012G19KT 9SM FEW009 OVC016 02/M01 A3012 RMK AO2 PK WND 32028/1155 SNB1157E40 P0001 T00171006
Loading
Personal Weather Stations






























Interactive Weather Map New forecast layout! Learn more

10-Day Weather Forecast

Advertisements
Track Severe Weather on mobile